Time;durP1;ratioP1;P1;durP2;ratioP2;P2;SDS_P1;SDS_P2;PMS_P1;PMS_P2;Temp;Humidity;BMP_temperature;BMP_pressure;BME280_temperature;BME280_humidity;BME280_pressure;Samples;Min_cycle;Max_cycle;Signal;HPM_P1;HPM_P2
2022/08/07 00:02:56;;;;;;;2.70;2.40;;;;;;;14.08;61.31;100317.15;430392;1274;142123;-64
2022/08/07 00:13:04;;;;;;;4.00;1.50;;;;;;;13.90;61.85;100320.79;430821;1273;142764;-63
2022/08/07 00:23:29;;;;;;;1.80;1.00;;;;;;;13.72;62.48;100329.68;431832;1273;143419;-62
2022/08/07 00:33:36;;;;;;;1.40;1.30;;;;;;;13.51;63.38;100327.02;430413;1274;143233;-63
2022/08/07 00:43:42;;;;;;;5.10;1.40;;;;;;;13.37;64.28;100331.73;429970;1274;145956;-63
2022/08/07 00:54:07;;;;;;;3.50;2.00;;;;;;;13.26;65.06;100337.86;430300;1274;142082;-61
2022/08/07 01:04:17;;;;;;;2.40;1.20;;;;;;;13.13;65.75;100336.96;429905;1273;147588;-63
2022/08/07 01:14:29;;;;;;;3.30;0.90;;;;;;;13.01;66.45;100344.50;429482;1274;146514;-63
2022/08/07 01:24:35;;;;;;;2.50;1.30;;;;;;;12.86;67.17;100351.05;430294;1274;143206;-63
2022/08/07 01:34:43;;;;;;;5.50;2.30;;;;;;;12.74;67.88;100351.59;429565;1274;146737;-63
2022/08/07 01:44:54;;;;;;;3.30;1.30;;;;;;;12.67;68.41;100346.63;431954;1274;143034;-63
2022/08/07 01:55:02;;;;;;;1.90;1.10;;;;;;;12.55;69.19;100346.43;433047;1272;143681;-64
2022/08/07 02:05:09;;;;;;;;;;;;;;;12.48;69.78;100338.62;430174;1274;143226;-63
2022/08/07 02:15:36;;;;;;;1.20;1.00;;;;;;;12.43;70.19;100349.63;430152;1274;175539;-62
2022/08/07 02:25:44;;;;;;;1.60;1.40;;;;;;;12.29;70.61;100347.61;429528;1274;143191;-61
2022/08/07 02:36:11;;;;;;;3.30;1.30;;;;;;;12.16;71.07;100339.98;431882;1274;146555;-64
2022/08/07 02:46:38;;;;;;;2.70;1.30;;;;;;;12.15;71.73;100337.02;433261;1274;143139;-63
2022/08/07 02:57:00;;;;;;;2.10;1.40;;;;;;;12.20;71.79;100346.58;430960;1273;142970;-62
2022/08/07 03:07:07;;;;;;;3.90;1.50;;;;;;;12.16;71.92;100363.30;446903;1274;144328;-63
2022/08/07 03:17:16;;;;;;;2.70;1.40;;;;;;;12.08;72.16;100355.34;445720;1272;148406;-63
2022/08/07 03:27:23;;;;;;;2.80;1.30;;;;;;;12.09;72.36;100348.06;435610;1274;142884;-63
2022/08/07 03:37:37;;;;;;;2.20;1.20;;;;;;;12.25;72.53;100358.20;431450;1274;143087;-63
2022/08/07 03:48:00;;;;;;;3.50;1.30;;;;;;;12.35;72.83;100360.30;440304;1273;142367;-62
2022/08/07 03:58:07;;;;;;;2.10;1.50;;;;;;;12.40;73.03;100369.80;432443;1274;143447;-64
2022/08/07 04:08:33;;;;;;;3.90;1.20;;;;;;;12.69;73.18;100378.30;446117;1274;144840;-63
2022/08/07 04:18:39;;;;;;;4.90;1.70;;;;;;;13.35;72.73;100387.83;440273;1274;143114;-62
2022/08/07 04:29:06;;;;;;;1.40;0.80;;;;;;;14.17;71.36;100384.88;445267;1274;143135;-63
2022/08/07 04:39:15;;;;;;;4.80;1.20;;;;;;;16.27;68.96;100380.16;447065;1274;144311;-63
2022/08/07 04:49:31;;;;;;;2.10;0.90;;;;;;;16.56;66.54;100387.75;446669;1275;144015;-63
2022/08/07 04:59:52;;;;;;;2.80;1.30;;;;;;;16.59;65.47;100388.61;441070;1274;142144;-63
2022/08/07 05:10:23;;;;;;;1.70;1.10;;;;;;;16.80;64.73;100399.05;439593;1274;192234;-63
2022/08/07 05:20:37;;;;;;;1.80;0.80;;;;;;;17.68;64.21;100412.90;445616;1276;144839;-64
2022/08/07 05:30:44;;;;;;;1.20;1.10;;;;;;;21.01;63.08;100411.13;446886;1274;143376;-66
2022/08/07 05:40:52;;;;;;;1.50;0.80;;;;;;;32.53;51.25;100401.73;446217;1274;144253;-62
2022/08/07 05:51:02;;;;;;;2.60;0.50;;;;;;;39.42;38.71;100399.98;447148;1272;142543;-62
2022/08/07 06:01:11;;;;;;;1.30;1.00;;;;;;;42.42;31.67;100393.95;439307;1274;147224;-62
2022/08/07 06:11:17;;;;;;;0.90;0.40;;;;;;;44.34;27.02;100391.54;441271;1274;143044;-62
2022/08/07 06:21:26;;;;;;;1.80;0.70;;;;;;;45.74;23.46;100394.23;446724;1274;142512;-62
2022/08/07 06:31:51;;;;;;;1.60;1.30;;;;;;;46.84;21.15;100400.73;446048;1274;143771;-62
2022/08/07 06:42:04;;;;;;;0.90;0.70;;;;;;;48.09;19.83;100401.63;447192;1273;142161;-62
2022/08/07 06:52:11;;;;;;;1.80;1.40;;;;;;;48.31;18.32;100409.73;446863;1274;142934;-62
2022/08/07 07:02:17;;;;;;;;;;;;;;;49.71;16.71;100408.99;446445;1274;185188;-62
2022/08/07 07:12:48;;;;;;;;;;;;;;;49.58;15.81;100415.27;447195;1274;128931;-62
2022/08/07 07:22:58;;;;;;;1.80;0.50;;;;;;;37.94;18.76;100410.06;446694;1274;130637;-63
2022/08/07 07:33:26;;;;;;;0.70;0.40;;;;;;;39.04;19.89;100411.27;446877;1274;141814;-63
2022/08/07 07:43:35;;;;;;;1.90;0.60;;;;;;;40.62;18.61;100404.81;446900;1274;142366;-63
2022/08/07 07:54:02;;;;;;;1.00;0.80;;;;;;;43.48;17.25;100400.16;447119;1272;142541;-63
2022/08/07 08:04:09;;;;;;;1.30;1.20;;;;;;;45.37;16.36;100398.25;446937;1274;145051;-63
2022/08/07 08:14:17;;;;;;;0.70;0.60;;;;;;;45.08;15.49;100388.88;446146;1273;143258;-62
2022/08/07 08:35:19;;;;;;;1.00;0.70;;;;;;;31.59;20.37;100409.81;446427;1273;146114;-63
2022/08/07 08:45:34;;;;;;;0.30;0.20;;;;;;;28.96;23.52;100406.17;440651;1274;145740;-63
2022/08/07 08:56:06;;;;;;;0.30;0.30;;;;;;;27.99;24.10;100403.31;429802;1274;142481;-62
2022/08/07 09:06:22;;;;;;;0.80;0.40;;;;;;;26.68;25.71;100407.52;430045;1274;143005;-61
2022/08/07 09:16:42;;;;;;;0.60;0.30;;;;;;;26.01;27.26;100403.11;430200;1274;141922;-61
2022/08/07 09:27:01;;;;;;;0.60;0.50;;;;;;;24.72;29.02;100395.25;430511;1276;141502;-62
2022/08/07 09:37:28;;;;;;;0.30;0.30;;;;;;;24.96;29.10;100393.70;430025;1274;142700;-61
2022/08/07 09:48:11;;;;;;;0.30;0.30;;;;;;;24.81;29.27;100386.56;430381;1274;142291;-62
2022/08/07 09:58:46;;;;;;;1.00;0.60;;;;;;;24.44;29.82;100380.66;430659;1274;141892;-65
2022/08/07 10:09:19;;;;;;;1.20;0.50;;;;;;;24.18;30.30;100376.13;430416;1274;141376;-62
2022/08/07 10:19:54;;;;;;;1.10;0.30;;;;;;;23.90;31.56;100367.91;431329;1273;144724;-68
2022/08/07 10:30:06;;;;;;;1.00;0.60;;;;;;;22.66;33.17;100366.88;430994;1274;197683;-63
2022/08/07 10:40:25;;;;;;;1.70;0.50;;;;;;;22.56;32.92;100362.73;429866;1274;144432;-62
2022/08/07 10:50:41;;;;;;;0.50;0.50;;;;;;;22.65;33.29;100343.24;429549;1274;142525;-64
2022/08/07 11:01:04;;;;;;;0.60;0.40;;;;;;;22.60;33.03;100341.79;432647;1274;142028;-62
2022/08/07 11:11:23;;;;;;;0.80;0.50;;;;;;;22.80;33.11;100324.98;429113;1274;142102;-63
2022/08/07 11:21:42;;;;;;;0.50;0.40;;;;;;;22.70;33.66;100319.60;431037;1273;142417;-62
2022/08/07 11:31:55;;;;;;;4.20;0.60;;;;;;;22.51;33.58;100306.55;428770;1274;1376040;-60
2022/08/07 11:42:13;;;;;;;1.20;0.90;;;;;;;22.28;34.08;100304.91;430056;1274;141857;-62
2022/08/07 11:52:42;;;;;;;3.20;1.20;;;;;;;22.23;33.97;100299.84;430427;1274;142861;-65
2022/08/07 12:03:10;;;;;;;2.10;1.50;;;;;;;21.94;34.71;100300.31;430413;1274;142284;-63
2022/08/07 12:13:43;;;;;;;0.60;0.30;;;;;;;21.84;34.48;100295.10;430301;1274;141520;-62
2022/08/07 12:23:59;;;;;;;0.70;0.40;;;;;;;21.48;34.90;100291.84;430475;1273;143390;-61
2022/08/07 12:34:14;;;;;;;0.20;0.20;;;;;;;21.41;34.46;100284.84;430370;1274;143651;-63
2022/08/07 12:44:21;;;;;;;0.40;0.30;;;;;;;21.36;34.58;100276.14;429549;1274;142395;-63
2022/08/07 12:54:39;;;;;;;1.00;0.20;;;;;;;21.36;34.65;100273.27;430224;1274;142893;-62
2022/08/07 13:05:03;;;;;;;0.50;0.20;;;;;;;21.25;34.70;100262.59;429830;1274;142038;-62
2022/08/07 13:15:42;;;;;;;0.40;0.40;;;;;;;21.39;35.68;100250.52;431066;1273;142267;-63
2022/08/07 13:25:54;;;;;;;0.50;0.40;;;;;;;21.28;35.77;100246.89;429859;1274;142353;-61
2022/08/07 13:36:13;;;;;;;0.70;0.70;;;;;;;21.25;35.22;100241.69;439961;1274;146545;-61
2022/08/07 13:46:28;;;;;;;1.80;0.40;;;;;;;21.32;35.48;100237.63;436537;1274;142226;-62
2022/08/07 13:56:40;;;;;;;0.30;0.30;;;;;;;21.34;35.70;100226.77;446262;1274;142391;-62
2022/08/07 14:07:05;;;;;;;1.40;0.50;;;;;;;21.07;36.01;100223.02;447086;1273;144009;-62
2022/08/07 14:17:15;;;;;;;0.70;0.40;;;;;;;20.88;36.32;100216.71;446284;1273;141607;-62
2022/08/07 14:27:43;;;;;;;2.30;0.70;;;;;;;20.81;36.15;100206.96;447130;1274;142100;-62
2022/08/07 14:38:11;;;;;;;0.40;0.40;;;;;;;20.94;36.09;100198.33;446368;1273;144363;-63
2022/08/07 14:48:37;;;;;;;0.60;0.60;;;;;;;20.95;36.42;100195.58;440326;1274;141734;-61
2022/08/07 14:58:49;;;;;;;1.60;0.50;;;;;;;20.87;36.30;100185.31;444493;1274;143966;-62
2022/08/07 15:09:07;;;;;;;1.30;1.20;;;;;;;20.77;36.20;100182.85;445308;1274;141441;-64
2022/08/07 15:19:38;;;;;;;1.30;0.80;;;;;;;20.72;36.71;100174.92;446878;1273;141938;-63
2022/08/07 15:30:10;;;;;;;1.60;0.70;;;;;;;20.62;36.59;100166.15;446787;1272;141243;-62
2022/08/07 15:40:23;;;;;;;2.80;0.90;;;;;;;20.56;36.77;100158.31;446838;1274;142618;-64
2022/08/07 15:50:42;;;;;;;0.50;0.50;;;;;;;20.49;37.18;100156.17;446712;1274;141499;-62
2022/08/07 16:01:16;;;;;;;1.50;0.40;;;;;;;20.38;37.08;100150.80;447125;1272;141699;-62
2022/08/07 16:11:51;;;;;;;1.10;0.50;;;;;;;20.33;36.64;100154.39;446312;1274;143319;-62
2022/08/07 16:22:06;;;;;;;1.10;1.00;;;;;;;20.32;37.07;100140.94;447044;1274;142094;-62
2022/08/07 16:32:39;;;;;;;1.40;0.50;;;;;;;20.28;37.51;100142.36;446359;1274;142064;-63
2022/08/07 16:43:10;;;;;;;0.80;0.50;;;;;;;20.14;37.85;100145.10;442963;1274;142966;-63
2022/08/07 16:53:36;;;;;;;1.50;0.40;;;;;;;19.95;38.09;100147.40;441135;1274;142596;-63
2022/08/07 17:04:16;;;;;;;1.80;0.50;;;;;;;19.82;38.66;100153.83;447055;1274;195652;-63
2022/08/07 17:14:41;;;;;;;1.20;0.70;;;;;;;19.74;38.89;100150.39;436596;1273;141969;-63
2022/08/07 17:25:04;;;;;;;2.00;0.80;;;;;;;19.87;39.09;100160.21;430319;1274;142159;-63
2022/08/07 17:35:19;;;;;;;1.30;0.80;;;;;;;19.92;39.25;100166.71;430012;1274;147085;-62
2022/08/07 17:45:54;;;;;;;1.90;0.90;;;;;;;19.44;39.47;100165.30;431203;1274;142312;-63
2022/08/07 17:56:09;;;;;;;1.20;0.90;;;;;;;19.02;40.35;100172.79;430096;1273;142169;-64
2022/08/07 18:06:35;;;;;;;1.80;0.70;;;;;;;18.62;41.21;100176.13;431015;1274;142709;-62
2022/08/07 18:16:47;;;;;;;3.10;1.10;;;;;;;18.23;41.81;100171.92;429736;1273;142814;-63
2022/08/07 18:27:24;;;;;;;1.50;0.90;;;;;;;17.82;42.79;100175.16;430400;1274;141894;-62
2022/08/07 18:37:58;;;;;;;1.80;0.90;;;;;;;17.41;44.18;100181.09;434534;1273;143190;-63
2022/08/07 18:48:31;;;;;;;6.70;1.90;;;;;;;16.99;46.14;100188.90;446450;1274;141711;-62
2022/08/07 18:59:05;;;;;;;6.50;2.40;;;;;;;16.57;48.69;100203.70;438085;1274;141955;-59
2022/08/07 19:09:17;;;;;;;12.40;3.90;;;;;;;16.14;50.47;100210.80;437637;1274;141828;-63
2022/08/07 19:19:56;;;;;;;5.90;2.30;;;;;;;15.81;52.25;100209.73;429855;1274;196986;-63
2022/08/07 19:30:08;;;;;;;7.00;2.50;;;;;;;15.42;54.29;100209.98;430436;1274;142654;-63
2022/08/07 19:40:41;;;;;;;4.10;2.40;;;;;;;15.06;55.60;100212.42;430608;1274;147085;-62
2022/08/07 19:50:56;;;;;;;2.90;2.30;;;;;;;14.73;56.73;100213.88;430613;1275;143605;-64
2022/08/07 20:01:03;;;;;;;5.60;1.80;;;;;;;14.38;57.81;100215.96;430861;1274;142847;-62
2022/08/07 20:11:16;;;;;;;6.50;2.10;;;;;;;14.07;59.03;100217.58;429769;1273;198397;-64
2022/08/07 20:21:44;;;;;;;4.60;2.00;;;;;;;13.79;59.95;100219.29;430173;1274;142630;-63
2022/08/07 20:31:53;;;;;;;10.60;2.80;;;;;;;13.51;61.02;100222.36;429574;1274;145888;-62
2022/08/07 20:42:01;;;;;;;11.40;3.00;;;;;;;13.30;62.15;100222.67;430534;1273;142539;-62
2022/08/07 20:52:17;;;;;;;6.30;2.60;;;;;;;13.07;62.66;100216.56;430167;1275;143624;-62
2022/08/07 21:13:11;;;;;;;4.30;2.80;;;;;;;12.72;64.50;100221.93;430386;1275;143220;-65
2022/08/07 21:23:24;;;;;;;7.80;2.20;;;;;;;12.55;65.16;100225.98;430099;1275;142516;-62
2022/08/07 21:33:39;;;;;;;7.00;2.60;;;;;;;12.37;65.83;100228.09;431028;1273;143433;-62
2022/08/07 21:43:52;;;;;;;8.00;3.10;;;;;;;12.19;66.45;100229.02;429914;1274;147708;-63
2022/08/07 21:54:19;;;;;;;8.50;3.80;;;;;;;12.03;66.85;100232.41;430946;1274;143381;-64
2022/08/07 22:04:27;;;;;;;6.20;3.70;;;;;;;11.90;67.38;100231.59;430643;1274;144696;-65
2022/08/07 22:14:44;;;;;;;5.90;2.60;;;;;;;11.78;67.79;100227.20;429523;1274;142772;-62
2022/08/07 22:25:12;;;;;;;6.00;3.20;;;;;;;11.66;68.03;100222.83;434914;1275;143744;-63
2022/08/07 22:35:18;;;;;;;7.40;3.40;;;;;;;11.54;68.38;100227.16;429154;1274;143475;-62
2022/08/07 22:45:41;;;;;;;6.50;3.00;;;;;;;11.44;68.81;100224.08;430657;1274;142753;-62
2022/08/07 22:56:08;;;;;;;12.90;2.70;;;;;;;11.33;69.14;100217.50;430151;1274;146697;-63
2022/08/07 23:06:36;;;;;;;7.40;3.60;;;;;;;11.25;69.41;100222.36;430667;1274;143492;-62
2022/08/07 23:16:53;;;;;;;12.30;3.70;;;;;;;11.18;69.91;100231.81;430325;1274;148119;-62
2022/08/07 23:27:23;;;;;;;7.30;2.80;;;;;;;11.07;70.35;100235.61;430817;1274;1195957;-64
2022/08/07 23:37:53;;;;;;;5.00;2.70;;;;;;;10.94;70.73;100236.48;430353;1274;143943;-62
2022/08/07 23:48:26;;;;;;;5.90;2.80;;;;;;;10.84;70.91;100237.38;431575;1274;142448;-62
2022/08/07 23:58:36;;;;;;;;;;;;;;;10.74;71.49;100233.73;430446;1274;147896;-63
